Time;durP1;ratioP1;P1;durP2;ratioP2;P2;SDS_P1;SDS_P2;PMS_P1;PMS_P2;Temp;Humidity;BMP_temperature;BMP_pressure;BME280_temperature;BME280_humidity;BME280_pressure;Samples;Min_cycle;Max_cycle;Signal;HPM_P1;HPM_P2
2024/02/03 00:00:57;;;;;;;31.30;7.80;;;;;;;7.77;45.01;99834.07;108128;1254;60326;-66
2024/02/03 00:03:27;;;;;;;28.20;7.50;;;;;;;7.95;44.92;99833.88;108143;1252;72564;-65
2024/02/03 00:05:55;;;;;;;23.10;7.40;;;;;;;7.88;44.96;99828.16;108211;1254;69616;-64
2024/02/03 00:08:23;;;;;;;24.30;7.90;;;;;;;7.85;45.05;99823.36;108079;1253;71664;-65
2024/02/03 00:10:50;;;;;;;27.80;7.60;;;;;;;7.92;45.05;99821.20;108120;1257;60290;-66
2024/02/03 00:13:17;;;;;;;22.90;6.90;;;;;;;7.78;45.73;99814.99;108125;1254;60389;-67
2024/02/03 00:15:46;;;;;;;31.70;7.10;;;;;;;7.91;45.46;99813.90;108158;1253;72845;-66
2024/02/03 00:18:14;;;;;;;33.40;7.60;;;;;;;7.96;45.22;99807.45;108206;1254;68925;-65
2024/02/03 00:20:42;;;;;;;25.50;6.90;;;;;;;8.00;45.46;99807.33;108061;1253;71385;-65
2024/02/03 00:23:10;;;;;;;27.30;7.10;;;;;;;8.01;45.27;99806.08;108129;1254;59872;-67
2024/02/03 00:25:38;;;;;;;27.70;7.20;;;;;;;7.90;45.66;99801.01;108156;1254;60472;-66
2024/02/03 00:28:06;;;;;;;29.40;8.60;;;;;;;8.01;45.37;99796.64;108052;1253;73799;-66
2024/02/03 00:30:33;;;;;;;23.00;6.80;;;;;;;7.94;45.57;99793.52;108262;1253;68596;-65
2024/02/03 00:33:01;;;;;;;29.70;7.80;;;;;;;7.82;45.90;99788.48;108220;1251;72372;-66
2024/02/03 00:35:29;;;;;;;26.70;7.80;;;;;;;7.99;45.85;99791.48;108227;1256;60871;-66
2024/02/03 00:37:56;;;;;;;31.00;7.30;;;;;;;7.85;46.24;99786.65;108152;1251;60533;-65
2024/02/03 00:40:24;;;;;;;22.50;7.70;;;;;;;7.85;46.25;99782.27;108242;1251;72591;-64
2024/02/03 00:42:52;;;;;;;29.30;7.70;;;;;;;7.97;45.90;99776.30;108215;1251;68336;-65
2024/02/03 00:45:19;;;;;;;27.20;7.00;;;;;;;7.94;46.11;99768.54;108308;1251;71391;-66
2024/02/03 00:50:15;;;;;;;26.40;7.10;;;;;;;5.98;50.87;99774.86;104883;1289;601563;-66
2024/02/03 00:52:43;;;;;;;28.80;7.30;;;;;;;7.08;48.53;99756.63;107243;1266;60859;-65
2024/02/03 00:55:11;;;;;;;26.40;8.00;;;;;;;7.45;47.87;99763.25;107247;1265;59281;-67
2024/02/03 00:57:39;;;;;;;30.20;7.20;;;;;;;7.54;47.39;99769.77;107218;1264;70769;-64
2024/02/03 01:00:09;;;;;;;28.90;8.10;;;;;;;7.58;47.47;99767.05;107286;1265;68938;-66
2024/02/03 01:02:37;;;;;;;28.90;7.40;;;;;;;7.63;47.25;99763.90;107297;1266;72671;-67
2024/02/03 01:05:04;;;;;;;23.80;7.30;;;;;;;7.77;47.13;99764.52;107263;1263;200400;-67
2024/02/03 01:07:32;;;;;;;34.90;8.30;;;;;;;7.37;47.76;99765.73;107374;1262;59265;-65
2024/02/03 01:10:00;;;;;;;38.20;7.90;;;;;;;6.73;49.21;99766.84;107371;1263;72328;-65
2024/02/03 01:12:28;;;;;;;27.80;8.10;;;;;;;6.70;49.46;99764.14;107352;1263;70586;-65
2024/02/03 01:14:55;;;;;;;32.10;7.40;;;;;;;6.78;49.49;99767.42;107412;1263;71501;-64
2024/02/03 01:17:23;;;;;;;36.80;8.10;;;;;;;6.83;49.26;99768.66;107378;1262;60922;-66
2024/02/03 01:19:51;;;;;;;29.00;8.40;;;;;;;6.81;49.53;99757.90;107421;1263;60068;-66
2024/02/03 01:22:19;;;;;;;28.90;8.10;;;;;;;6.72;49.86;99745.23;107436;1261;73209;-66
2024/02/03 01:24:47;;;;;;;32.90;8.20;;;;;;;6.68;50.04;99739.43;107468;1263;70024;-66
2024/02/03 01:27:15;;;;;;;25.90;7.90;;;;;;;7.64;48.28;99727.70;107376;1262;71510;-66
2024/02/03 01:29:42;;;;;;;26.30;7.30;;;;;;;7.79;47.62;99716.05;107390;1263;59696;-64
2024/02/03 01:32:10;;;;;;;24.60;7.20;;;;;;;7.77;47.53;99708.95;107381;1262;59613;-65
2024/02/03 01:34:37;;;;;;;25.30;7.10;;;;;;;7.91;47.22;99705.18;107408;1262;72084;-66
2024/02/03 01:37:05;;;;;;;31.90;8.60;;;;;;;7.89;47.20;99697.02;107393;1263;69441;-66
2024/02/03 01:39:33;;;;;;;29.30;8.10;;;;;;;7.90;47.22;99694.73;107361;1263;71442;-66
2024/02/03 01:42:01;;;;;;;21.30;7.60;;;;;;;7.86;47.10;99688.39;107362;1267;59692;-66
2024/02/03 01:44:29;;;;;;;34.20;7.60;;;;;;;7.92;47.16;99678.41;107320;1264;59806;-65
2024/02/03 01:46:58;;;;;;;28.60;7.40;;;;;;;7.87;47.05;99675.24;107298;1264;71860;-67
2024/02/03 01:49:27;;;;;;;21.40;7.90;;;;;;;7.83;47.40;99668.92;107181;1264;70067;-65
2024/02/03 01:51:55;;;;;;;27.40;7.60;;;;;;;7.91;47.15;99662.53;107345;1266;71278;-67
2024/02/03 01:54:23;;;;;;;21.10;6.70;;;;;;;7.91;47.32;99648.88;107174;1265;60979;-66
2024/02/03 01:56:51;;;;;;;28.60;8.70;;;;;;;7.91;47.31;99645.23;107321;1264;59158;-65
2024/02/03 01:59:19;;;;;;;25.60;8.30;;;;;;;7.97;47.10;99637.83;107257;1266;73070;-65
2024/02/03 02:01:46;;;;;;;28.00;7.50;;;;;;;7.87;47.33;99635.40;107214;1264;70624;-66
2024/02/03 02:04:14;;;;;;;27.80;8.30;;;;;;;7.91;47.38;99627.39;107309;1266;72774;-68
2024/02/03 02:06:42;;;;;;;28.30;7.40;;;;;;;8.06;47.12;99624.95;107551;1262;59707;-65
2024/02/03 02:09:18;;;;;;;45.40;9.30;;;;;;;8.06;46.98;99633.02;108076;1253;59350;-66
2024/02/03 02:11:46;;;;;;;27.30;8.50;;;;;;;8.12;46.90;99630.00;108012;1253;73066;-66
2024/02/03 02:14:14;;;;;;;30.20;8.10;;;;;;;8.09;47.04;99629.23;108008;1253;68273;-65
2024/02/03 02:16:41;;;;;;;23.20;7.30;;;;;;;8.13;46.74;99633.14;107975;1258;72385;-67
2024/02/03 02:19:09;;;;;;;27.90;7.30;;;;;;;8.13;46.93;99621.39;108089;1253;60095;-66
2024/02/03 02:21:36;;;;;;;36.40;8.10;;;;;;;8.11;47.04;99611.85;107999;1258;59456;-66
2024/02/03 02:24:05;;;;;;;23.20;8.00;;;;;;;8.19;46.87;99616.13;108065;1253;72439;-65
2024/02/03 02:26:32;;;;;;;23.70;7.10;;;;;;;8.31;46.57;99617.63;108067;1253;70314;-65
2024/02/03 02:29:00;;;;;;;31.90;8.30;;;;;;;8.34;46.73;99614.52;108043;1253;71685;-64
2024/02/03 02:31:27;;;;;;;25.60;8.90;;;;;;;8.42;46.66;99606.02;107937;1253;59984;-64
2024/02/03 02:33:55;;;;;;;27.60;8.00;;;;;;;8.34;46.66;99606.81;108222;1251;60004;-65
2024/02/03 02:36:23;;;;;;;25.30;7.30;;;;;;;8.34;46.98;99603.86;108126;1253;71707;-65
2024/02/03 02:38:50;;;;;;;25.80;7.70;;;;;;;8.39;46.77;99606.14;108160;1254;69993;-66
2024/02/03 02:41:18;;;;;;;19.30;7.30;;;;;;;8.45;46.71;99600.16;108132;1254;72822;-67
2024/02/03 02:43:45;;;;;;;38.60;9.60;;;;;;;8.34;47.19;99593.72;108111;1252;60832;-63
2024/02/03 02:46:13;;;;;;;29.80;7.50;;;;;;;8.33;47.24;99588.68;108115;1254;59861;-67
2024/02/03 02:48:40;;;;;;;23.60;8.20;;;;;;;8.51;47.16;99584.55;108088;1252;73056;-66
2024/02/03 02:51:08;;;;;;;30.00;8.00;;;;;;;8.70;46.88;99580.52;108101;1254;69209;-67
2024/02/03 02:53:36;;;;;;;28.10;7.50;;;;;;;8.64;47.00;99571.64;108194;1254;72587;-66
2024/02/03 02:56:04;;;;;;;31.60;9.00;;;;;;;8.78;46.92;99571.64;108052;1254;60911;-65
2024/02/03 02:58:31;;;;;;;22.20;7.50;;;;;;;8.84;46.86;99562.81;108135;1253;60153;-65
2024/02/03 03:00:59;;;;;;;27.40;8.30;;;;;;;8.79;47.16;99557.42;108120;1254;71755;-63
2024/02/03 03:03:27;;;;;;;26.50;8.50;;;;;;;8.92;47.08;99550.77;108087;1254;69215;-66
2024/02/03 03:05:58;;;;;;;31.40;8.70;;;;;;;8.76;47.42;99557.37;108160;1253;70302;-66
2024/02/03 03:08:26;;;;;;;32.40;9.40;;;;;;;8.85;47.35;99551.58;108167;1254;60246;-66
2024/02/03 03:10:53;;;;;;;24.00;7.30;;;;;;;8.88;47.36;99548.67;108154;1254;59972;-64
2024/02/03 03:13:21;;;;;;;24.50;8.20;;;;;;;8.90;47.41;99542.44;108107;1254;71837;-65
2024/02/03 03:15:48;;;;;;;35.30;8.60;;;;;;;8.97;47.25;99533.94;108077;1253;70078;-66
2024/02/03 03:18:16;;;;;;;30.60;8.50;;;;;;;8.97;47.40;99530.29;108153;1254;71374;-67
2024/02/03 03:20:44;;;;;;;29.10;8.70;;;;;;;8.77;47.96;99520.38;108100;1254;59870;-63
2024/02/03 03:23:11;;;;;;;30.70;9.80;;;;;;;8.89;47.83;99510.27;108175;1258;59410;-67
2024/02/03 03:25:39;;;;;;;34.80;10.30;;;;;;;8.84;47.71;99500.34;108112;1254;73111;-66
2024/02/03 03:28:06;;;;;;;48.60;11.40;;;;;;;8.82;47.90;99489.36;108106;1254;69683;-65
2024/02/03 03:30:34;;;;;;;32.30;10.10;;;;;;;8.84;47.98;99484.05;108054;1253;70661;-66
2024/02/03 03:33:01;;;;;;;31.20;9.10;;;;;;;8.81;47.98;99486.09;108035;1254;60856;-65
2024/02/03 03:35:29;;;;;;;32.70;10.30;;;;;;;8.73;48.28;99480.48;107971;1258;59030;-65
2024/02/03 03:37:57;;;;;;;30.00;9.70;;;;;;;8.63;48.57;99477.02;107949;1253;73077;-65
2024/02/03 03:40:25;;;;;;;29.80;9.40;;;;;;;8.60;48.55;99476.61;107879;1253;69060;-66
2024/02/03 03:42:53;;;;;;;21.80;8.50;;;;;;;8.75;48.44;99474.77;108076;1259;72721;-66
2024/02/03 03:45:20;;;;;;;27.30;8.10;;;;;;;8.55;48.89;99472.26;107931;1253;61373;-66
2024/02/03 03:47:48;;;;;;;29.10;8.60;;;;;;;8.64;48.71;99468.55;108065;1253;60023;-66
2024/02/03 03:50:15;;;;;;;25.20;7.60;;;;;;;8.68;48.69;99460.16;107995;1257;71259;-65
2024/02/03 03:52:43;;;;;;;19.10;7.60;;;;;;;8.74;48.70;99460.32;108082;1256;69061;-66
2024/02/03 03:55:10;;;;;;;24.50;8.10;;;;;;;8.77;48.81;99451.59;107943;1258;72664;-67
2024/02/03 03:57:38;;;;;;;22.00;7.30;;;;;;;8.85;48.72;99445.30;107954;1256;60514;-67
2024/02/03 04:00:09;;;;;;;29.60;9.40;;;;;;;8.68;49.44;99449.17;107967;1258;59901;-66
2024/02/03 04:02:40;;;;;;;27.30;8.00;;;;;;;8.76;49.76;99448.11;108046;1254;72996;-65
2024/02/03 04:05:08;;;;;;;24.70;7.30;;;;;;;8.65;50.31;99446.29;107975;1255;70748;-66
2024/02/03 04:07:36;;;;;;;27.80;7.90;;;;;;;8.59;50.95;99436.55;107994;1256;72548;-66
2024/02/03 04:10:04;;;;;;;25.60;8.70;;;;;;;8.48;51.51;99432.80;108030;1256;60893;-65
2024/02/03 04:12:31;;;;;;;18.60;6.70;;;;;;;8.59;51.49;99429.58;108050;1256;59556;-66
2024/02/03 04:15:01;;;;;;;27.20;8.00;;;;;;;8.32;52.45;99429.56;107992;1255;71813;-66
2024/02/03 04:17:29;;;;;;;27.80;8.80;;;;;;;8.34;52.97;99424.94;108030;1256;69177;-67
2024/02/03 04:19:56;;;;;;;28.90;9.20;;;;;;;8.47;52.67;99410.79;108073;1256;72700;-64
2024/02/03 04:22:24;;;;;;;27.30;8.80;;;;;;;8.38;53.20;99408.54;108056;1254;59643;-65
2024/02/03 04:24:53;;;;;;;29.30;9.00;;;;;;;8.24;53.75;99394.54;107909;1256;59501;-66
2024/02/03 04:27:21;;;;;;;37.00;10.40;;;;;;;8.31;53.71;99392.70;107935;1254;71854;-66
2024/02/03 04:29:49;;;;;;;27.50;10.80;;;;;;;8.12;54.26;99385.91;108038;1254;68791;-66
2024/02/03 04:32:16;;;;;;;22.90;9.00;;;;;;;8.18;54.30;99389.71;107972;1254;71405;-66
2024/02/03 04:34:43;;;;;;;28.20;9.70;;;;;;;8.00;54.83;99379.89;108120;1258;60861;-66
2024/02/03 04:37:12;;;;;;;35.10;11.90;;;;;;;7.98;55.13;99373.88;108107;1253;59324;-66
2024/02/03 04:39:41;;;;;;;36.30;12.10;;;;;;;8.12;54.69;99371.04;108124;1254;73038;-66
2024/02/03 04:42:09;;;;;;;41.60;12.00;;;;;;;8.07;54.99;99356.04;108085;1254;69932;-66
2024/02/03 04:44:36;;;;;;;37.20;10.80;;;;;;;8.13;54.90;99350.39;108086;1254;72712;-64
2024/02/03 04:47:04;;;;;;;39.80;10.90;;;;;;;8.23;54.67;99342.14;108058;1254;60887;-66
2024/02/03 04:49:32;;;;;;;39.30;12.00;;;;;;;8.07;55.05;99331.03;108073;1253;59624;-65
2024/02/03 04:52:00;;;;;;;29.00;11.10;;;;;;;8.17;54.75;99323.48;108059;1253;71787;-67
2024/02/03 04:54:28;;;;;;;37.40;12.30;;;;;;;8.06;55.23;99316.03;108109;1253;68691;-66
2024/02/03 04:56:56;;;;;;;36.20;13.20;;;;;;;8.04;55.38;99310.89;108045;1254;72681;-66
2024/02/03 04:59:23;;;;;;;41.10;13.60;;;;;;;8.09;55.29;99303.85;108017;1258;60328;-65
2024/02/03 05:01:51;;;;;;;40.60;12.30;;;;;;;8.03;55.46;99295.73;108102;1254;60324;-65
2024/02/03 05:04:18;;;;;;;28.00;10.60;;;;;;;8.08;55.24;99284.16;108125;1258;73785;-65
2024/02/03 05:06:46;;;;;;;37.60;13.90;;;;;;;7.97;55.60;99272.36;108082;1260;70768;-66
2024/02/03 05:09:14;;;;;;;33.80;11.80;;;;;;;8.00;55.57;99264.88;108045;1255;71255;-65
2024/02/03 05:11:42;;;;;;;27.50;11.60;;;;;;;8.05;55.40;99260.30;108002;1254;60428;-67
2024/02/03 05:14:09;;;;;;;30.80;12.00;;;;;;;7.90;55.93;99257.58;107946;1254;60494;-67
2024/02/03 05:16:37;;;;;;;29.30;11.50;;;;;;;7.97;55.83;99252.44;108078;1256;73979;-67
2024/02/03 05:19:09;;;;;;;36.50;11.90;;;;;;;7.85;56.18;99245.55;108056;1254;70342;-67
2024/02/03 05:21:37;;;;;;;33.70;12.00;;;;;;;7.68;56.72;99235.57;108036;1257;71572;-67
2024/02/03 05:24:05;;;;;;;31.10;11.20;;;;;;;7.75;56.43;99234.08;108149;1252;60866;-67
2024/02/03 05:26:33;;;;;;;34.50;13.00;;;;;;;7.68;56.84;99227.38;108185;1254;60364;-67
2024/02/03 05:29:00;;;;;;;36.90;13.50;;;;;;;7.65;56.82;99220.13;108070;1254;72309;-67
2024/02/03 05:31:28;;;;;;;28.30;10.70;;;;;;;7.83;56.53;99223.45;108088;1253;68995;-68
2024/02/03 05:33:55;;;;;;;34.60;11.70;;;;;;;7.64;57.15;99225.06;107967;1258;71681;-67
2024/02/03 05:36:23;;;;;;;43.10;12.80;;;;;;;7.72;56.85;99231.92;107972;1258;60307;-67
2024/02/03 05:38:50;;;;;;;36.00;12.10;;;;;;;7.88;56.54;99221.16;107987;1258;60451;-67
2024/02/03 05:41:18;;;;;;;38.20;12.40;;;;;;;7.80;56.57;99216.24;107954;1254;73806;-67
2024/02/03 05:43:45;;;;;;;39.70;14.00;;;;;;;7.86;56.66;99209.70;107959;1255;70320;-66
2024/02/03 05:46:13;;;;;;;33.50;10.10;;;;;;;7.83;56.59;99207.52;107923;1258;72706;-67
2024/02/03 05:48:41;;;;;;;34.90;13.80;;;;;;;7.71;56.99;99212.58;107959;1259;60512;-67
2024/02/03 05:51:08;;;;;;;32.30;13.50;;;;;;;7.96;56.33;99208.23;107983;1254;60086;-67
2024/02/03 05:53:36;;;;;;;42.30;13.10;;;;;;;7.87;56.77;99203.36;108004;1257;72844;-67
2024/02/03 05:56:05;;;;;;;32.90;13.30;;;;;;;7.85;56.66;99199.43;107929;1258;70124;-66
2024/02/03 05:58:32;;;;;;;35.00;12.70;;;;;;;7.89;56.65;99194.20;107978;1259;72472;-66
2024/02/03 06:01:00;;;;;;;34.30;14.90;;;;;;;8.00;56.45;99191.84;107926;1256;60528;-67
2024/02/03 06:03:27;;;;;;;35.70;11.40;;;;;;;7.98;56.32;99190.49;107939;1254;60188;-67
2024/02/03 06:05:55;;;;;;;30.20;12.50;;;;;;;7.85;56.79;99188.07;107957;1256;72770;-68
2024/02/03 06:08:42;;;;;;;31.60;15.40;;;;;;;8.03;56.35;99186.27;107907;1256;70090;-68
2024/02/03 06:11:12;;;;;;;42.80;15.00;;;;;;;8.17;55.87;99189.16;107978;1254;73083;-66
2024/02/03 06:13:40;;;;;;;33.30;12.30;;;;;;;7.99;56.46;99191.86;107978;1256;60436;-68
2024/02/03 06:16:08;;;;;;;36.80;14.80;;;;;;;7.83;56.86;99191.45;107899;1254;59155;-67
2024/02/03 06:18:35;;;;;;;30.30;14.20;;;;;;;8.03;56.53;99187.85;107971;1253;72588;-67
2024/02/03 06:21:04;;;;;;;31.50;12.60;;;;;;;8.07;56.16;99177.36;107876;1259;68992;-68
2024/02/03 06:23:31;;;;;;;41.50;13.10;;;;;;;8.00;56.40;99161.58;107974;1254;71518;-67
2024/02/03 06:26:00;;;;;;;27.80;12.10;;;;;;;7.97;56.61;99153.86;108005;1258;59442;-67
2024/02/03 06:28:28;;;;;;;32.40;12.40;;;;;;;7.95;56.67;99141.33;107964;1256;60276;-68
2024/02/03 06:30:58;;;;;;;28.60;11.40;;;;;;;7.84;56.93;99143.36;108040;1254;73908;-67
2024/02/03 06:33:27;;;;;;;29.40;13.20;;;;;;;7.92;56.87;99132.38;108021;1255;69309;-67
2024/02/03 06:35:55;;;;;;;31.80;13.90;;;;;;;7.96;56.86;99134.13;107922;1255;72308;-67
2024/02/03 06:38:23;;;;;;;23.80;10.60;;;;;;;7.94;57.02;99133.69;108042;1254;59193;-67
2024/02/03 06:40:51;;;;;;;27.10;13.30;;;;;;;7.71;57.62;99132.18;108105;1254;60417;-68
2024/02/03 06:43:19;;;;;;;27.90;13.30;;;;;;;8.05;56.89;99124.85;108127;1254;73835;-67
2024/02/03 06:45:47;;;;;;;30.60;11.30;;;;;;;7.92;57.04;99122.05;108121;1253;71163;-66
2024/02/03 06:48:15;;;;;;;32.50;12.90;;;;;;;7.88;57.37;99114.39;107977;1254;72476;-67
2024/02/03 06:50:43;;;;;;;24.30;11.50;;;;;;;7.92;57.44;99116.81;107942;1259;60955;-68
2024/02/03 06:53:10;;;;;;;32.80;13.60;;;;;;;7.85;57.72;99114.15;107899;1254;60225;-67
2024/02/03 06:55:38;;;;;;;32.60;13.60;;;;;;;8.29;56.40;99101.59;107943;1254;72733;-67
2024/02/03 06:58:05;;;;;;;27.00;12.30;;;;;;;8.10;56.79;99099.45;107975;1259;70354;-67
2024/02/03 07:00:33;;;;;;;29.00;13.30;;;;;;;7.96;57.24;99088.86;107962;1259;72761;-67
2024/02/03 07:03:01;;;;;;;27.20;12.30;;;;;;;7.93;57.41;99085.64;108025;1253;60437;-67
2024/02/03 07:05:29;;;;;;;27.50;11.40;;;;;;;7.92;57.29;99085.87;107862;1262;60446;-68
2024/02/03 07:07:56;;;;;;;23.10;10.70;;;;;;;7.91;57.31;99072.96;108015;1254;72775;-67
2024/02/03 07:10:23;;;;;;;22.20;12.10;;;;;;;8.17;56.83;99075.89;107967;1254;68744;-67
2024/02/03 07:12:51;;;;;;;28.10;12.50;;;;;;;8.38;56.09;99078.15;107930;1255;71171;-68
2024/02/03 07:15:19;;;;;;;25.50;9.90;;;;;;;8.53;55.98;99071.85;107993;1256;61021;-67
2024/02/03 07:17:49;;;;;;;27.40;11.90;;;;;;;8.31;56.48;99071.94;107998;1254;59457;-67
2024/02/03 07:20:16;;;;;;;26.70;12.00;;;;;;;8.37;56.17;99055.27;108033;1254;72867;-67
2024/02/03 07:22:45;;;;;;;25.10;12.60;;;;;;;8.22;56.74;99046.27;108023;1254;68888;-68
2024/02/03 07:25:12;;;;;;;24.10;11.30;;;;;;;8.18;56.66;99038.24;107983;1254;72636;-68
2024/02/03 07:27:41;;;;;;;19.70;10.30;;;;;;;8.13;56.91;99035.86;107935;1256;59688;-67
2024/02/03 07:30:08;;;;;;;23.10;10.70;;;;;;;8.09;57.15;99032.36;107973;1254;60294;-67
2024/02/03 07:32:36;;;;;;;25.70;11.20;;;;;;;8.28;56.71;99030.13;108108;1253;73936;-67
2024/02/03 07:35:06;;;;;;;19.60;11.40;;;;;;;8.20;56.88;99025.05;108027;1253;69239;-68
2024/02/03 07:37:35;;;;;;;17.70;9.80;;;;;;;8.32;56.52;99020.14;107967;1254;73215;-67
2024/02/03 07:40:03;;;;;;;25.70;13.10;;;;;;;8.19;56.83;99015.99;107955;1253;60882;-67
2024/02/03 07:42:31;;;;;;;26.20;11.60;;;;;;;8.27;56.72;99008.30;108035;1255;60352;-67
2024/02/03 07:44:58;;;;;;;22.90;11.80;;;;;;;8.30;56.80;99006.58;107992;1254;73759;-68
2024/02/03 07:47:26;;;;;;;25.10;11.80;;;;;;;8.44;56.46;98997.06;108075;1254;70115;-66
2024/02/03 07:49:54;;;;;;;22.90;11.30;;;;;;;8.41;56.42;99001.00;108057;1259;71298;-66
2024/02/03 07:52:22;;;;;;;27.50;13.10;;;;;;;8.59;56.10;98997.41;108027;1254;60901;-66
2024/02/03 07:54:49;;;;;;;18.70;9.40;;;;;;;8.66;55.85;98994.63;107958;1254;60435;-66
2024/02/03 07:57:17;;;;;;;19.50;11.90;;;;;;;8.39;56.64;98986.81;108014;1259;72561;-66
2024/02/03 07:59:44;;;;;;;23.70;12.60;;;;;;;8.51;56.25;98978.71;107970;1258;68993;-67
2024/02/03 08:02:12;;;;;;;21.80;12.60;;;;;;;8.44;56.51;98969.25;107965;1257;71483;-67
2024/02/03 08:04:39;;;;;;;26.80;12.90;;;;;;;8.59;56.05;98964.69;107936;1256;59715;-66
2024/02/03 08:07:06;;;;;;;22.10;12.20;;;;;;;8.66;55.95;98970.16;107993;1254;60194;-66
2024/02/03 08:09:34;;;;;;;20.30;10.40;;;;;;;8.31;56.81;98965.61;107874;1254;72665;-67
2024/02/03 08:12:04;;;;;;;22.90;9.90;;;;;;;8.32;56.91;98961.73;107938;1254;70452;-66
2024/02/03 08:14:31;;;;;;;18.90;10.80;;;;;;;8.47;56.75;98957.56;108006;1258;70242;-67
2024/02/03 08:16:59;;;;;;;20.70;11.40;;;;;;;8.50;56.51;98945.52;107926;1256;61252;-67
2024/02/03 08:19:27;;;;;;;20.50;10.80;;;;;;;8.52;56.60;98947.20;107963;1254;60983;-67
2024/02/03 08:21:54;;;;;;;22.30;12.20;;;;;;;8.37;57.21;98946.63;107933;1254;72884;-66
2024/02/03 08:24:22;;;;;;;21.50;12.00;;;;;;;8.62;56.49;98946.16;107984;1254;70301;-66
2024/02/03 08:26:49;;;;;;;15.20;8.30;;;;;;;8.81;56.12;98935.99;108005;1254;72661;-67
2024/02/03 08:29:17;;;;;;;21.70;12.10;;;;;;;8.60;56.57;98923.69;108040;1254;60332;-67
2024/02/03 08:31:44;;;;;;;25.00;12.80;;;;;;;8.61;56.51;98920.16;108038;1254;60941;-67
2024/02/03 08:34:12;;;;;;;26.80;12.40;;;;;;;8.55;56.92;98913.10;108138;1253;73883;-67
2024/02/03 08:36:40;;;;;;;21.30;11.40;;;;;;;8.62;56.81;98917.49;108157;1254;72580;-67
2024/02/03 08:39:08;;;;;;;21.00;10.10;;;;;;;8.58;57.01;98908.95;108138;1254;71299;-67
2024/02/03 08:41:36;;;;;;;21.10;11.80;;;;;;;8.23;58.01;98910.58;108041;1254;60437;-67
2024/02/03 08:44:04;;;;;;;27.00;11.90;;;;;;;8.32;57.86;98906.99;108081;1254;60522;-66
2024/02/03 08:46:34;;;;;;;24.50;12.40;;;;;;;8.45;57.54;98907.27;108120;1254;72673;-67
2024/02/03 08:49:02;;;;;;;20.50;11.80;;;;;;;8.59;57.04;98905.55;108038;1254;68749;-68
2024/02/03 08:51:30;;;;;;;22.10;12.30;;;;;;;8.72;56.67;98901.58;108040;1254;72649;-67
2024/02/03 08:53:58;;;;;;;19.00;10.80;;;;;;;8.80;56.44;98891.77;108045;1254;60296;-67
2024/02/03 08:56:25;;;;;;;19.30;11.90;;;;;;;8.66;56.71;98890.36;108031;1254;59637;-67
2024/02/03 08:58:53;;;;;;;16.80;10.50;;;;;;;8.68;56.99;98881.33;108042;1254;73840;-67
2024/02/03 09:01:20;;;;;;;20.70;11.20;;;;;;;8.67;57.10;98873.17;107980;1254;70322;-67
2024/02/03 09:03:48;;;;;;;20.00;11.80;;;;;;;8.86;56.74;98867.48;108056;1254;71582;-67
2024/02/03 09:06:19;;;;;;;20.20;11.60;;;;;;;9.04;56.40;98869.39;107838;1260;60890;-67
2024/02/03 09:08:51;;;;;;;20.30;10.60;;;;;;;8.88;56.92;98856.17;108051;1254;60501;-67
2024/02/03 09:11:18;;;;;;;23.00;11.60;;;;;;;9.11;56.70;98859.00;108099;1259;72605;-67
2024/02/03 09:13:46;;;;;;;16.60;9.70;;;;;;;9.18;56.61;98857.48;108052;1254;69199;-67
2024/02/03 09:16:14;;;;;;;18.60;10.90;;;;;;;9.15;56.80;98849.02;108092;1254;71430;-67
2024/02/03 09:18:41;;;;;;;21.00;11.30;;;;;;;9.43;56.17;98836.89;108042;1254;60904;-67
2024/02/03 09:21:10;;;;;;;19.40;11.90;;;;;;;9.48;56.17;98829.80;108074;1253;60425;-68
2024/02/03 09:23:39;;;;;;;20.20;11.80;;;;;;;9.58;55.99;98823.46;107968;1254;73968;-67
2024/02/03 09:26:08;;;;;;;22.40;10.80;;;;;;;9.56;56.21;98820.07;108091;1254;69701;-66
2024/02/03 09:28:36;;;;;;;21.20;11.40;;;;;;;9.50;56.32;98817.42;108090;1254;70863;-67
2024/02/03 09:31:05;;;;;;;21.70;11.60;;;;;;;9.73;55.74;98813.39;108037;1254;60866;-67
2024/02/03 09:33:36;;;;;;;21.10;11.50;;;;;;;9.56;56.07;98807.29;107909;1258;60347;-67
2024/02/03 09:36:05;;;;;;;18.00;10.80;;;;;;;9.52;56.05;98803.66;107912;1260;76117;-66
2024/02/03 09:38:32;;;;;;;18.90;10.30;;;;;;;9.38;56.46;98797.21;107876;1257;71721;-67
2024/02/03 09:41:00;;;;;;;16.70;9.80;;;;;;;9.46;56.60;98788.90;107778;1257;71511;-67
2024/02/03 09:43:27;;;;;;;19.60;11.40;;;;;;;9.49;56.56;98780.88;107756;1258;61092;-67
2024/02/03 09:45:55;;;;;;;21.60;10.80;;;;;;;9.47;56.71;98777.64;107802;1257;61016;-67
2024/02/03 09:48:23;;;;;;;22.60;11.70;;;;;;;9.63;56.20;98772.92;107737;1257;74077;-67
2024/02/03 09:50:51;;;;;;;17.70;10.90;;;;;;;9.82;55.74;98775.35;107836;1255;69048;-67
2024/02/03 09:53:19;;;;;;;21.10;11.10;;;;;;;9.73;56.21;98778.84;107960;1254;73553;-67
2024/02/03 09:55:47;;;;;;;18.20;11.40;;;;;;;9.75;56.32;98773.64;107717;1256;60607;-67
2024/02/03 09:58:14;;;;;;;19.80;10.90;;;;;;;9.80;56.21;98777.78;107741;1257;60346;-67
2024/02/03 10:00:42;;;;;;;22.80;11.00;;;;;;;9.84;56.09;98777.89;107894;1257;73876;-67
2024/02/03 10:03:17;;;;;;;20.60;12.10;;;;;;;9.76;56.35;98772.58;107855;1258;70207;-67
2024/02/03 10:05:45;;;;;;;19.80;11.30;;;;;;;9.81;56.25;98768.77;107903;1257;72865;-66
2024/02/03 10:08:13;;;;;;;19.90;10.70;;;;;;;9.89;55.97;98767.45;107846;1256;59913;-67
2024/02/03 10:10:42;;;;;;;19.70;11.00;;;;;;;9.97;55.97;98764.71;107846;1256;59558;-67
2024/02/03 10:13:12;;;;;;;21.10;11.20;;;;;;;10.26;55.32;98761.48;107903;1255;74487;-68
2024/02/03 10:15:40;;;;;;;20.70;11.60;;;;;;;10.26;55.33;98750.98;107945;1254;72589;-66
2024/02/03 10:18:08;;;;;;;21.50;10.60;;;;;;;9.87;56.21;98746.70;107889;1260;72704;-67
2024/02/03 10:20:36;;;;;;;22.20;11.60;;;;;;;9.15;58.34;98740.31;107914;1256;60873;-67
2024/02/03 10:23:04;;;;;;;18.60;10.60;;;;;;;9.02;58.85;98733.45;108059;1254;60270;-67
2024/02/03 10:25:33;;;;;;;17.40;10.20;;;;;;;8.76;59.86;98728.73;107790;1255;73865;-67
2024/02/03 10:28:03;;;;;;;19.70;12.10;;;;;;;8.84;59.86;98726.52;107873;1254;69561;-67
2024/02/03 10:30:35;;;;;;;18.10;10.30;;;;;;;9.19;59.10;98724.33;107933;1254;73626;-67
2024/02/03 10:33:08;;;;;;;18.60;11.20;;;;;;;9.89;57.43;98716.77;107999;1253;62028;-65
2024/02/03 10:35:38;;;;;;;22.70;11.90;;;;;;;10.11;56.84;98714.51;108094;1253;60437;-66
2024/02/03 10:38:05;;;;;;;18.40;10.40;;;;;;;10.10;56.77;98711.90;108079;1253;75875;-66
2024/02/03 10:40:33;;;;;;;17.60;10.70;;;;;;;10.18;56.41;98709.55;108117;1254;70374;-65
2024/02/03 10:43:01;;;;;;;20.50;11.10;;;;;;;9.39;58.51;98711.50;108146;1253;71290;-67
2024/02/03 10:45:31;;;;;;;18.80;9.90;;;;;;;9.29;58.92;98710.13;108131;1254;61270;-67
2024/02/03 10:48:01;;;;;;;17.80;11.70;;;;;;;9.36;58.96;98711.65;108170;1253;60475;-67
2024/02/03 10:50:43;;;;;;;21.70;11.50;;;;;;;9.27;59.15;98707.79;108092;1257;73632;-67
2024/02/03 10:53:20;;;;;;;18.50;10.70;;;;;;;9.01;60.04;98704.61;108072;1254;68196;-66
2024/02/03 10:55:54;;;;;;;19.10;11.10;;;;;;;9.26;59.53;98695.74;108063;1254;71680;-67
2024/02/03 10:58:27;;;;;;;20.30;11.70;;;;;;;9.39;59.28;98694.50;107920;1252;60967;-67
2024/02/03 11:00:56;;;;;;;22.10;12.30;;;;;;;9.39;59.27;98694.67;108118;1254;60944;-67
2024/02/03 11:03:24;;;;;;;20.60;12.50;;;;;;;9.50;59.22;98694.97;108090;1254;76736;-67
2024/02/03 11:05:53;;;;;;;18.80;10.70;;;;;;;9.48;59.40;98692.09;108063;1254;71015;-66
2024/02/03 11:08:21;;;;;;;18.60;11.80;;;;;;;9.70;58.98;98687.71;108051;1254;72494;-66
2024/02/03 11:10:50;;;;;;;19.20;12.20;;;;;;;9.73;58.84;98679.82;108049;1254;63052;-67
2024/02/03 11:13:21;;;;;;;18.60;11.70;;;;;;;9.75;58.93;98682.84;108189;1253;60293;-66
2024/02/03 11:15:58;;;;;;;21.20;12.90;;;;;;;9.90;58.45;98673.98;108146;1257;72635;-67
2024/02/03 11:18:27;;;;;;;20.80;11.10;;;;;;;10.60;56.88;98675.81;108163;1254;72597;-66
2024/02/03 11:21:06;;;;;;;22.70;11.80;;;;;;;10.62;56.68;98672.40;108116;1254;72257;-67
2024/02/03 11:23:34;;;;;;;20.90;12.10;;;;;;;10.35;57.31;98675.93;108101;1254;60281;-66
2024/02/03 11:26:01;;;;;;;18.00;11.20;;;;;;;9.92;58.33;98673.16;108119;1254;62569;-67